createdAt,value
2023-03-26T00:02:17.169Z,101632.81
2023-03-26T00:04:46.872Z,101640.66
2023-03-26T00:07:14.578Z,101640.59
2023-03-26T00:09:49.387Z,101640.75
2023-03-26T00:12:16.865Z,101640.78
2023-03-26T00:14:44.061Z,101635.44
2023-03-26T00:17:11.377Z,101631.94
2023-03-26T00:19:39.331Z,101623.25
2023-03-26T00:22:13.714Z,101631.81
2023-03-26T00:24:41.089Z,101630.97
2023-03-26T00:27:09.014Z,101631.41
2023-03-26T00:29:36.245Z,101624.09
2023-03-26T00:32:08.983Z,101628.72
2023-03-26T00:34:41.754Z,101628.53
2023-03-26T00:37:09.128Z,101622.56
2023-03-26T00:39:37.591Z,101623.19
2023-03-26T00:42:07.158Z,101613.53
2023-03-26T00:44:37.051Z,101604.38
2023-03-26T00:47:04.452Z,101601.13
2023-03-26T00:49:32.900Z,101591.56
2023-03-26T00:52:03.388Z,101589.78
2023-03-26T00:54:35.616Z,101581.09
2023-03-26T00:57:03.341Z,101584.59
2023-03-26T01:02:36.350Z,101578.16
2023-03-26T01:05:34.103Z,101568.56
2023-03-26T01:08:33.492Z,101562.22
2023-03-26T01:11:22.681Z,101568.47
2023-03-26T01:14:26.974Z,101560.31
2023-03-26T01:16:56.594Z,101558.66
2023-03-26T01:19:45.283Z,101557.06
2023-03-26T01:22:19.167Z,101548.28
2023-03-26T01:24:53.483Z,101539.78
2023-03-26T01:27:24.870Z,101529.91
2023-03-26T01:30:04.122Z,101518.66
2023-03-26T01:32:47.746Z,101521.47
2023-03-26T01:35:27.908Z,101518.75
2023-03-26T01:38:02.750Z,101515.06
2023-03-26T01:40:43.457Z,101510.75
2023-03-26T01:43:25.855Z,101516.63
2023-03-26T01:45:56.621Z,101515.47
2023-03-26T01:48:49.936Z,101500.72
2023-03-26T01:51:31.189Z,101499.94
2023-03-26T01:53:58.715Z,101495.16
2023-03-26T01:56:40.298Z,101495.06
2023-03-26T01:59:10.556Z,101497.72
2023-03-26T02:02:02.636Z,101494.03
2023-03-26T02:04:55.205Z,101489.19
2023-03-26T02:07:34.978Z,101479.63
2023-03-26T02:10:10.762Z,101470.22
2023-03-26T02:12:41.955Z,101467.59
2023-03-26T02:15:10.050Z,101478.91
2023-03-26T02:17:40.469Z,101471.19
2023-03-26T02:20:10.734Z,101465.22
2023-03-26T02:22:41.704Z,101461.06
2023-03-26T02:25:13.362Z,101461.31
2023-03-26T02:27:41.088Z,101455.06
2023-03-26T02:30:16.464Z,101458.81
2023-03-26T02:32:54.268Z,101455.50
2023-03-26T02:35:23.945Z,101449.63
2023-03-26T02:37:58.076Z,101440.75
2023-03-26T02:40:26.052Z,101439.16
2023-03-26T02:42:53.751Z,101432.25
2023-03-26T02:45:22.290Z,101427.06
2023-03-26T02:47:51.241Z,101419.84
2023-03-26T02:50:56.848Z,101420.09
2023-03-26T02:53:47.686Z,101426.59
2023-03-26T02:56:38.094Z,101431.16
2023-03-26T02:59:37.408Z,101434.81
2023-03-26T03:02:40.098Z,101416.41
2023-03-26T03:05:31.638Z,101415.69
2023-03-26T03:08:20.883Z,101412.06
2023-03-26T03:11:25.363Z,101411.31
2023-03-26T03:13:54.916Z,101406.09
2023-03-26T03:16:25.341Z,101400.00
2023-03-26T03:18:57.992Z,101396.53
2023-03-26T03:21:37.531Z,101388.69
2023-03-26T03:24:05.210Z,101391.22
2023-03-26T03:26:36.739Z,101388.66
2023-03-26T03:29:16.317Z,101383.41
2023-03-26T03:31:43.749Z,101382.53
2023-03-26T03:34:23.657Z,101375.56
2023-03-26T03:36:51.785Z,101375.53
2023-03-26T03:39:36.017Z,101377.28
2023-03-26T03:42:03.656Z,101375.56
2023-03-26T03:44:30.989Z,101370.16
2023-03-26T03:46:59.018Z,101361.56
2023-03-26T03:49:26.610Z,101370.28
2023-03-26T03:51:58.873Z,101355.28
2023-03-26T03:54:32.667Z,101357.97
2023-03-26T03:57:09.137Z,101359.69
2023-03-26T03:59:48.027Z,101357.13
2023-03-26T04:02:28.621Z,101352.75
2023-03-26T04:04:59.255Z,101357.09
2023-03-26T04:07:31.406Z,101354.50
2023-03-26T04:10:09.634Z,101354.41
2023-03-26T04:12:55.495Z,101353.59
2023-03-26T04:15:42.290Z,101344.00
2023-03-26T04:18:10.898Z,101343.97
2023-03-26T04:20:46.695Z,101341.34
2023-03-26T04:23:21.269Z,101343.13
2023-03-26T04:25:54.827Z,101342.25
2023-03-26T04:28:54.725Z,101350.13
2023-03-26T04:31:29.678Z,101344.84
2023-03-26T04:34:13.809Z,101342.25
2023-03-26T04:36:54.766Z,101349.19
2023-03-26T04:39:29.607Z,101350.78
2023-03-26T04:42:20.157Z,101357.00
2023-03-26T04:45:08.031Z,101347.28
2023-03-26T04:47:37.272Z,101349.06
2023-03-26T04:50:07.639Z,101350.78
2023-03-26T04:52:37.308Z,101348.13
2023-03-26T04:55:30.222Z,101341.94
2023-03-26T04:58:06.112Z,101342.81
2023-03-26T05:00:55.395Z,101341.09
2023-03-26T05:03:25.879Z,101333.22
2023-03-26T05:05:55.732Z,101335.84
2023-03-26T05:08:23.322Z,101342.59
2023-03-26T05:10:50.702Z,101325.22
2023-03-26T05:13:28.372Z,101327.06
2023-03-26T05:15:58.111Z,101327.00
2023-03-26T05:18:51.876Z,101327.97
2023-03-26T05:21:19.940Z,101328.81
2023-03-26T05:23:47.130Z,101322.75
2023-03-26T05:26:23.623Z,101318.41
2023-03-26T05:28:52.751Z,101313.19
2023-03-26T05:31:33.915Z,101321.13
2023-03-26T05:34:04.018Z,101320.16
2023-03-26T05:36:31.786Z,101314.16
2023-03-26T05:39:09.961Z,101307.19
2023-03-26T05:41:56.078Z,101308.91
2023-03-26T05:44:30.247Z,101307.19
2023-03-26T05:47:00.474Z,101308.94
2023-03-26T05:49:28.675Z,101307.19
2023-03-26T05:51:55.963Z,101303.72
2023-03-26T05:54:42.940Z,101301.84
2023-03-26T05:57:33.522Z,101298.47
2023-03-26T06:00:22.089Z,101302.88
2023-03-26T06:02:56.617Z,101307.97
2023-03-26T06:05:45.643Z,101301.94
2023-03-26T06:08:21.668Z,101295.91
2023-03-26T06:10:51.735Z,101306.53
2023-03-26T06:13:19.739Z,101312.63
2023-03-26T06:15:51.503Z,101302.19
2023-03-26T06:18:45.306Z,101301.31
2023-03-26T06:21:29.759Z,101310.06
2023-03-26T06:24:05.508Z,101307.53
2023-03-26T06:26:46.710Z,101306.69
2023-03-26T06:29:32.933Z,101308.44
2023-03-26T06:32:20.013Z,101311.91
2023-03-26T06:35:20.097Z,101311.94
2023-03-26T06:37:47.503Z,101315.50
2023-03-26T06:40:15.945Z,101316.41
2023-03-26T06:43:09.374Z,101313.81
2023-03-26T06:46:16.555Z,101307.88
2023-03-26T06:49:28.515Z,101317.47
2023-03-26T06:52:18.328Z,101321.13
2023-03-26T06:55:12.576Z,101323.81
2023-03-26T06:57:54.985Z,101331.78
2023-03-26T07:00:43.198Z,101324.09
2023-03-26T07:03:33.591Z,101316.22
2023-03-26T07:06:19.555Z,101309.38
2023-03-26T07:09:05.651Z,101307.56
2023-03-26T07:11:58.040Z,101312.13
2023-03-26T07:14:47.033Z,101320.09
2023-03-26T07:17:43.789Z,101317.50
2023-03-26T07:20:23.035Z,101320.28
2023-03-26T07:22:51.428Z,101309.00
2023-03-26T07:25:45.698Z,101309.03
2023-03-26T07:28:27.289Z,101313.63
2023-03-26T07:31:38.273Z,101305.81
2023-03-26T07:34:50.379Z,101308.31
2023-03-26T07:38:27.424Z,101304.16
2023-03-26T07:41:22.997Z,101305.13
2023-03-26T07:44:18.664Z,101301.56
2023-03-26T07:47:26.287Z,101314.16
2023-03-26T07:50:24.240Z,101319.94
2023-03-26T07:53:12.814Z,101311.53
2023-03-26T07:56:16.491Z,101318.75
2023-03-26T07:59:15.959Z,101311.72
2023-03-26T08:02:44.330Z,101316.06
2023-03-26T08:06:23.696Z,101314.41
2023-03-26T08:09:14.884Z,101323.94
2023-03-26T08:12:30.979Z,101309.13
2023-03-26T08:15:11.373Z,101314.56
2023-03-26T08:17:38.608Z,101326.78
2023-03-26T08:20:36.712Z,101326.94
2023-03-26T08:23:30.469Z,101326.97
2023-03-26T08:26:06.286Z,101327.94
2023-03-26T08:29:02.261Z,101322.66
2023-03-26T08:31:35.918Z,101331.44
2023-03-26T08:34:09.750Z,101321.75
2023-03-26T08:36:41.093Z,101323.50
2023-03-26T08:39:13.290Z,101309.44
2023-03-26T08:41:59.447Z,101311.16
2023-03-26T08:45:12.531Z,101311.13
2023-03-26T08:48:19.660Z,101309.41
2023-03-26T08:51:29.535Z,101309.34
2023-03-26T08:55:01.054Z,101308.22
2023-03-26T08:58:05.560Z,101307.22
2023-03-26T09:01:10.007Z,101304.31
2023-03-26T09:03:52.515Z,101306.75
2023-03-26T09:06:46.922Z,101293.78
2023-03-26T09:09:54.939Z,101293.44
2023-03-26T09:12:50.734Z,101292.13
2023-03-26T09:15:46.036Z,101282.25
2023-03-26T09:18:47.493Z,101283.81
2023-03-26T09:21:58.638Z,101279.81
2023-03-26T09:25:00.855Z,101291.59
2023-03-26T09:28:22.412Z,101285.69
2023-03-26T09:31:12.072Z,101278.63
2023-03-26T09:34:13.211Z,101289.63
2023-03-26T09:37:16.685Z,101271.84
2023-03-26T09:40:39.205Z,101274.56
2023-03-26T09:44:02.177Z,101272.78
2023-03-26T09:46:46.150Z,101263.41
2023-03-26T09:49:50.933Z,101275.72
2023-03-26T09:53:07.731Z,101260.44
2023-03-26T09:56:06.234Z,101252.78
2023-03-26T09:58:54.266Z,101250.06
2023-03-26T10:01:51.112Z,101241.09
2023-03-26T10:05:08.252Z,101236.28
2023-03-26T10:08:20.528Z,101231.78
2023-03-26T10:11:18.211Z,101223.53
2023-03-26T10:14:18.818Z,101227.25
2023-03-26T10:17:16.449Z,101231.59
2023-03-26T10:20:34.751Z,101223.00
2023-03-26T10:24:16.761Z,101224.44
2023-03-26T10:27:11.354Z,101224.00
2023-03-26T10:30:10.037Z,101225.75
2023-03-26T10:33:35.047Z,101214.25
2023-03-26T10:36:30.045Z,101224.97
2023-03-26T10:39:54.885Z,101233.34
2023-03-26T10:42:52.922Z,101220.69
2023-03-26T10:45:33.481Z,101218.34
2023-03-26T10:49:08.021Z,101221.25
2023-03-26T10:52:12.415Z,101219.28
2023-03-26T10:55:12.370Z,101215.34
2023-03-26T10:57:45.101Z,101207.00
2023-03-26T11:00:21.810Z,101213.06
2023-03-26T11:03:44.277Z,101215.81
2023-03-26T11:06:32.735Z,101214.06
2023-03-26T11:09:21.884Z,101206.59
2023-03-26T11:12:32.059Z,101198.69
2023-03-26T11:15:37.872Z,101201.09
2023-03-26T11:18:12.163Z,101200.34
2023-03-26T11:21:20.666Z,101194.31
2023-03-26T11:24:23.216Z,101202.84
2023-03-26T11:27:19.723Z,101189.63
2023-03-26T11:30:18.588Z,101184.91
2023-03-26T11:33:06.752Z,101206.84
2023-03-26T11:36:01.654Z,101207.34
2023-03-26T11:38:39.550Z,101192.44
2023-03-26T11:41:46.934Z,101185.44
2023-03-26T11:44:58.792Z,101174.16
2023-03-26T11:48:11.919Z,101179.41
2023-03-26T11:50:58.514Z,101167.88
2023-03-26T11:53:34.784Z,101175.34
2023-03-26T11:56:32.106Z,101171.13
2023-03-26T11:59:21.799Z,101181.31
2023-03-26T12:02:13.537Z,101164.59
2023-03-26T12:04:51.092Z,101175.91
2023-03-26T12:07:35.570Z,101178.00
2023-03-26T12:10:32.667Z,101163.91
2023-03-26T12:13:32.488Z,101158.84
2023-03-26T12:16:14.828Z,101163.78
2023-03-26T12:19:00.692Z,101158.13
2023-03-26T12:21:34.782Z,101164.06
2023-03-26T12:24:24.647Z,101164.50
2023-03-26T12:27:38.293Z,101155.38
2023-03-26T12:30:34.249Z,101124.16
2023-03-26T12:33:26.943Z,101113.34
2023-03-26T12:36:01.424Z,101121.06
2023-03-26T12:39:16.353Z,101103.84
2023-03-26T12:44:49.664Z,101101.16
2023-03-26T12:48:44.706Z,101113.16
2023-03-26T12:51:26.660Z,101093.47
2023-03-26T12:54:16.362Z,101111.63
2023-03-26T12:57:12.624Z,101109.22
2023-03-26T12:59:53.916Z,101112.16
2023-03-26T13:02:25.503Z,101096.06
2023-03-26T13:05:19.859Z,101093.78
2023-03-26T13:08:11.237Z,101078.66
2023-03-26T13:11:02.554Z,101074.00
2023-03-26T13:13:59.811Z,101064.44
2023-03-26T13:17:06.260Z,101072.81
2023-03-26T13:19:51.702Z,101058.28
2023-03-26T13:22:47.320Z,101056.25
2023-03-26T13:25:42.921Z,101058.88
2023-03-26T13:28:40.140Z,101051.16
2023-03-26T13:31:28.975Z,101058.56
2023-03-26T13:34:15.031Z,101048.38
2023-03-26T13:37:14.763Z,101042.50
2023-03-26T13:40:19.893Z,101016.22
2023-03-26T13:43:24.577Z,101025.03
2023-03-26T13:46:30.804Z,101029.47
2023-03-26T13:49:09.267Z,101022.72
2023-03-26T13:51:55.117Z,100996.91
2023-03-26T13:54:41.765Z,101014.28
2023-03-26T13:57:41.646Z,101019.53
2023-03-26T14:00:41.394Z,101037.31
2023-03-26T14:03:21.135Z,101034.53
2023-03-26T14:05:57.759Z,101019.19
2023-03-26T14:08:50.959Z,101042.75
2023-03-26T14:11:28.846Z,101025.34
2023-03-26T14:14:28.202Z,101008.78
2023-03-26T14:17:05.066Z,101032.47
2023-03-26T14:19:47.834Z,101019.13
2023-03-26T14:22:51.847Z,101012.06
2023-03-26T14:25:56.508Z,101008.09
2023-03-26T14:28:53.831Z,101016.06
2023-03-26T14:32:05.865Z,101019.19
2023-03-26T14:35:20.436Z,101033.09
2023-03-26T14:38:31.508Z,101026.22
2023-03-26T14:41:35.374Z,101020.88
2023-03-26T14:44:48.819Z,101035.91
2023-03-26T14:47:25.184Z,101024.41
2023-03-26T14:49:59.485Z,101024.75
2023-03-26T14:52:47.354Z,101027.44
2023-03-26T14:55:31.741Z,101039.13
2023-03-26T14:58:35.739Z,101048.09
2023-03-26T15:04:41.539Z,101055.41
2023-03-26T15:07:50.419Z,101050.38
2023-03-26T15:10:58.472Z,101060.59
2023-03-26T15:14:07.889Z,101058.78
2023-03-26T15:17:08.249Z,101090.75
2023-03-26T15:20:10.767Z,101112.59
2023-03-26T15:23:24.823Z,101124.88
2023-03-26T15:26:36.020Z,101151.03
2023-03-26T15:33:06.015Z,101141.09
2023-03-26T15:36:07.447Z,101139.75
2023-03-26T15:39:33.675Z,101161.69
2023-03-26T15:42:31.054Z,101161.56
2023-03-26T15:45:34.521Z,101140.63
2023-03-26T15:51:52.577Z,101151.25
2023-03-26T15:54:36.761Z,101148.09
2023-03-26T15:57:17.003Z,101140.16
2023-03-26T16:00:25.533Z,101172.19
2023-03-26T16:03:14.384Z,101192.25
2023-03-26T16:06:12.791Z,101173.22
2023-03-26T16:09:49.595Z,101181.09
2023-03-26T16:12:47.093Z,101192.50
2023-03-26T16:15:39.983Z,101185.84
2023-03-26T16:18:33.194Z,101182.41
2023-03-26T16:21:37.371Z,101190.84
2023-03-26T16:24:27.190Z,101178.34
2023-03-26T16:27:34.109Z,101182.91
2023-03-26T16:30:42.422Z,101220.94
2023-03-26T16:34:03.528Z,101229.50
2023-03-26T16:36:50.225Z,101200.03
2023-03-26T16:39:45.315Z,101197.06
2023-03-26T16:43:01.658Z,101221.41
2023-03-26T16:45:38.980Z,101217.75
2023-03-26T16:48:24.130Z,101209.00
2023-03-26T16:51:16.556Z,101207.13
2023-03-26T16:54:38.287Z,101199.41
2023-03-26T16:57:45.428Z,101198.72
2023-03-26T17:00:47.533Z,101217.25
2023-03-26T17:03:48.284Z,101225.09
2023-03-26T17:06:56.326Z,101210.25
2023-03-26T17:09:49.804Z,101257.69
2023-03-26T17:12:57.948Z,101260.22
2023-03-26T17:15:36.794Z,101241.84
2023-03-26T17:18:40.158Z,101247.19
2023-03-26T17:21:58.933Z,101255.13
2023-03-26T17:25:15.134Z,101261.25
2023-03-26T17:28:41.775Z,101253.38
2023-03-26T17:31:56.612Z,101230.53
2023-03-26T17:34:55.206Z,101267.38
2023-03-26T17:37:43.738Z,101279.66
2023-03-26T17:40:45.738Z,101276.13
2023-03-26T17:43:44.004Z,101270.81
2023-03-26T17:46:24.418Z,101290.09
2023-03-26T17:49:13.157Z,101283.84
2023-03-26T17:52:20.583Z,101265.56
2023-03-26T17:55:02.556Z,101311.19
2023-03-26T17:58:01.729Z,101297.16
2023-03-26T18:04:08.668Z,101322.41
2023-03-26T18:07:15.633Z,101317.91
2023-03-26T18:10:08.928Z,101310.13
2023-03-26T18:12:54.773Z,101306.59
2023-03-26T18:16:06.863Z,101309.22
2023-03-26T18:18:51.349Z,101312.72
2023-03-26T18:21:30.929Z,101317.94
2023-03-26T18:24:07.207Z,101324.16
2023-03-26T18:27:04.296Z,101328.44
2023-03-26T18:30:03.589Z,101323.06
2023-03-26T18:33:00.070Z,101317.00
2023-03-26T18:35:55.805Z,101317.88
2023-03-26T18:38:45.499Z,101305.59
2023-03-26T18:41:39.618Z,101328.31
2023-03-26T18:44:13.325Z,101315.94
2023-03-26T18:46:55.934Z,101311.66
2023-03-26T18:49:32.352Z,101315.06
2023-03-26T18:52:10.196Z,101317.56
2023-03-26T18:54:49.112Z,101329.84
2023-03-26T18:57:40.614Z,101325.59
2023-03-26T19:00:38.719Z,101344.03
2023-03-26T19:03:21.293Z,101333.34
2023-03-26T19:06:04.274Z,101341.78
2023-03-26T19:08:47.003Z,101339.44
2023-03-26T19:11:25.970Z,101338.53
2023-03-26T19:14:20.666Z,101334.78
2023-03-26T19:17:05.545Z,101335.75
2023-03-26T19:19:53.796Z,101338.44
2023-03-26T19:22:45.818Z,101353.44
2023-03-26T19:26:00.615Z,101346.47
2023-03-26T19:28:33.573Z,101348.88
2023-03-26T19:31:24.676Z,101342.06
2023-03-26T19:34:23.643Z,101342.06
2023-03-26T19:37:19.379Z,101333.31
2023-03-26T19:40:21.413Z,101339.59
2023-03-26T19:42:54.046Z,101337.66
2023-03-26T19:45:34.516Z,101344.75
2023-03-26T19:48:14.162Z,101348.94
2023-03-26T19:51:20.301Z,101354.91
2023-03-26T19:53:55.234Z,101343.69
2023-03-26T19:56:31.193Z,101356.91
2023-03-26T19:58:59.418Z,101361.28
2023-03-26T20:01:36.080Z,101359.56
2023-03-26T20:04:21.599Z,101357.81
2023-03-26T20:06:50.226Z,101352.53
2023-03-26T20:09:27.012Z,101375.09
2023-03-26T20:11:56.662Z,101368.13
2023-03-26T20:17:13.595Z,101363.69
2023-03-26T20:19:42.136Z,101364.59
2023-03-26T20:22:20.209Z,101368.84
2023-03-26T20:25:00.316Z,101360.88
2023-03-26T20:27:30.178Z,101351.38
2023-03-26T20:29:59.135Z,101351.38
2023-03-26T20:32:27.530Z,101354.00
2023-03-26T20:35:02.563Z,101362.66
2023-03-26T20:37:32.339Z,101351.41
2023-03-26T20:40:09.158Z,101340.13
2023-03-26T20:42:36.488Z,101339.34
2023-03-26T20:45:18.688Z,101340.41
2023-03-26T20:47:49.909Z,101333.47
2023-03-26T20:50:19.288Z,101329.19
2023-03-26T20:52:49.603Z,101338.03
2023-03-26T20:55:33.024Z,101336.38
2023-03-26T20:58:01.364Z,101318.78
2023-03-26T21:00:32.596Z,101326.00
2023-03-26T21:03:00.441Z,101318.91
2023-03-26T21:05:29.397Z,101325.94
2023-03-26T21:07:59.578Z,101333.91
2023-03-26T21:10:32.710Z,101316.38
2023-03-26T21:13:24.509Z,101311.94
2023-03-26T21:15:52.042Z,101312.00
2023-03-26T21:18:21.595Z,101307.66
2023-03-26T21:21:14.125Z,101310.31
2023-03-26T21:24:08.347Z,101309.41
2023-03-26T21:29:41.328Z,101308.53
2023-03-26T21:32:12.707Z,101312.91
2023-03-26T21:34:47.845Z,101304.16
2023-03-26T21:37:27.217Z,101309.38
2023-03-26T21:39:56.239Z,101320.75
2023-03-26T21:42:29.926Z,101310.28
2023-03-26T21:45:05.194Z,101318.06
2023-03-26T21:47:38.382Z,101309.41
2023-03-26T21:50:17.606Z,101314.66
2023-03-26T21:52:52.363Z,101318.13
2023-03-26T21:55:38.926Z,101318.19
2023-03-26T21:58:11.164Z,101327.78
2023-03-26T22:01:05.487Z,101322.31
2023-03-26T22:04:06.147Z,101325.91
2023-03-26T22:07:15.020Z,101319.72
2023-03-26T22:09:43.814Z,101331.06
2023-03-26T22:12:16.357Z,101325.84
2023-03-26T22:14:43.714Z,101318.75
2023-03-26T22:17:13.274Z,101321.44
2023-03-26T22:19:45.477Z,101332.84
2023-03-26T22:22:33.442Z,101337.91
2023-03-26T22:25:05.545Z,101334.28
2023-03-26T22:27:35.144Z,101332.75
2023-03-26T22:30:28.889Z,101343.97
2023-03-26T22:32:59.734Z,101345.81
2023-03-26T22:35:27.807Z,101342.91
2023-03-26T22:38:01.392Z,101343.81
2023-03-26T22:40:34.978Z,101358.66
2023-03-26T22:43:02.111Z,101348.97
2023-03-26T22:45:49.621Z,101361.06
2023-03-26T22:48:24.045Z,101361.03
2023-03-26T22:51:09.606Z,101367.19
2023-03-26T22:53:41.052Z,101351.66
2023-03-26T22:56:18.532Z,101348.59
2023-03-26T22:58:47.927Z,101354.00
2023-03-26T23:01:26.537Z,101361.81
2023-03-26T23:03:54.641Z,101360.81
2023-03-26T23:06:21.896Z,101351.91
2023-03-26T23:08:53.110Z,101367.47
2023-03-26T23:11:22.345Z,101368.50
2023-03-26T23:13:50.052Z,101368.34
2023-03-26T23:16:18.385Z,101370.00
2023-03-26T23:18:46.017Z,101368.00
2023-03-26T23:21:16.231Z,101384.88
2023-03-26T23:23:44.718Z,101367.56
2023-03-26T23:26:12.218Z,101386.31
2023-03-26T23:28:41.187Z,101382.13
2023-03-26T23:31:13.077Z,101370.09
2023-03-26T23:33:46.424Z,101395.81
2023-03-26T23:36:19.860Z,101387.31
2023-03-26T23:38:48.657Z,101391.84
2023-03-26T23:41:18.140Z,101396.72
2023-03-26T23:43:54.789Z,101395.44
2023-03-26T23:46:31.083Z,101404.91
2023-03-26T23:49:04.505Z,101405.25
2023-03-26T23:51:35.179Z,101409.13
2023-03-26T23:54:03.263Z,101425.56
2023-03-26T23:56:30.431Z,101418.03
2023-03-26T23:59:02.452Z,101423.19
